sensor_id;sensor_type;location;lat;lon;timestamp;pressure;altitude;pressure_sealevel;temperature;humidity
38558;BME280;24333;42.626;23.308;2023-04-05T00:02:08;71213.75;;;-148.95;100.00
38558;BME280;24333;42.626;23.308;2023-04-05T00:04:59;71203.38;;;-148.95;100.00
38558;BME280;24333;42.626;23.308;2023-04-05T00:08:08;71205.44;;;-148.95;100.00
38558;BME280;24333;42.626;23.308;2023-04-05T00:10:47;71203.38;;;-148.95;100.00
38558;BME280;24333;42.626;23.308;2023-04-05T00:13:14;71201.28;;;-148.95;100.00
38558;BME280;24333;42.626;23.308;2023-04-05T00:15:40;71205.44;;;-148.95;100.00
38558;BME280;24333;42.626;23.308;2023-04-05T04:26:12;71197.16;;;-148.95;100.00
38558;BME280;24333;42.626;23.308;2023-04-05T04:28:43;71184.69;;;-148.95;100.00
38558;BME280;24333;42.626;23.308;2023-04-05T04:31:12;71174.31;;;-148.95;100.00
38558;BME280;24333;42.626;23.308;2023-04-05T04:33:41;71166.00;;;-148.95;100.00
38558;BME280;24333;42.626;23.308;2023-04-05T04:36:15;71151.50;;;-148.95;100.00
38558;BME280;24333;42.626;23.308;2023-04-05T04:39:06;71153.56;;;-148.95;100.00
38558;BME280;24333;42.626;23.308;2023-04-05T04:42:14;71163.94;;;-148.95;100.00
38558;BME280;24333;42.626;23.308;2023-04-05T04:44:44;71151.50;;;-148.95;100.00
38558;BME280;24333;42.626;23.308;2023-04-05T04:47:10;71155.63;;;-148.95;100.00
38558;BME280;24333;42.626;23.308;2023-04-05T04:49:38;71139.03;;;-148.95;100.00
38558;BME280;24333;42.626;23.308;2023-04-05T04:52:05;71141.13;;;-148.95;99.07
38558;BME280;24333;42.626;23.308;2023-04-05T04:54:31;71141.13;;;-148.95;97.81
38558;BME280;24333;42.626;23.308;2023-04-05T04:56:58;71134.88;;;-148.95;96.83
38558;BME280;24333;42.626;23.308;2023-04-05T04:59:26;71132.81;;;-148.95;97.17
38558;BME280;24333;42.626;23.308;2023-04-05T05:01:52;71145.25;;;-148.95;97.46
38558;BME280;24333;42.626;23.308;2023-04-05T05:04:17;71141.13;;;-148.95;99.59
38558;BME280;24333;42.626;23.308;2023-04-05T05:06:43;71155.63;;;-148.95;100.00
38558;BME280;24333;42.626;23.308;2023-04-05T05:09:08;71130.75;;;-148.95;100.00
38558;BME280;24333;42.626;23.308;2023-04-05T05:11:34;71126.59;;;-148.95;100.00
38558;BME280;24333;42.626;23.308;2023-04-05T05:13:59;71124.50;;;-148.95;99.08
38558;BME280;24333;42.626;23.308;2023-04-05T05:16:25;71109.97;;;-148.95;95.21
38558;BME280;24333;42.626;23.308;2023-04-05T05:18:51;71097.53;;;-148.95;94.82
38558;BME280;24333;42.626;23.308;2023-04-05T05:21:17;71112.06;;;-148.95;94.92
38558;BME280;24333;42.626;23.308;2023-04-05T05:23:42;71112.06;;;-148.95;96.93
38558;BME280;24333;42.626;23.308;2023-04-05T05:26:08;71128.66;;;-148.95;97.41
38558;BME280;24333;42.626;23.308;2023-04-05T05:28:33;71128.66;;;-148.95;100.00
38558;BME280;24333;42.626;23.308;2023-04-05T05:30:59;71118.28;;;-148.95;100.00
38558;BME280;24333;42.626;23.308;2023-04-05T05:33:25;71114.13;;;-148.95;100.00
38558;BME280;24333;42.626;23.308;2023-04-05T05:35:50;71118.28;;;-148.95;100.00
38558;BME280;24333;42.626;23.308;2023-04-05T05:38:17;71120.38;;;-148.95;100.00
38558;BME280;24333;42.626;23.308;2023-04-05T05:40:43;71103.75;;;-148.95;99.69
38558;BME280;24333;42.626;23.308;2023-04-05T05:43:08;71103.75;;;-148.95;93.64
38558;BME280;24333;42.626;23.308;2023-04-05T05:45:36;71078.84;;;-148.95;91.82
38558;BME280;24333;42.626;23.308;2023-04-05T05:48:02;71076.78;;;-148.95;96.46
38558;BME280;24333;42.626;23.308;2023-04-05T05:50:27;71066.41;;;-148.95;92.49
38558;BME280;24333;42.626;23.308;2023-04-05T05:52:57;71062.25;;;-148.95;86.56
38558;BME280;24333;42.626;23.308;2023-04-05T05:55:23;71053.94;;;-148.95;84.49
38558;BME280;24333;42.626;23.308;2023-04-05T05:57:48;71047.72;;;-148.95;85.57
38558;BME280;24333;42.626;23.308;2023-04-05T06:00:14;71047.72;;;-148.95;85.43
38558;BME280;24333;42.626;23.308;2023-04-05T06:02:40;71033.19;;;-148.95;84.04
38558;BME280;24333;42.626;23.308;2023-04-05T06:05:06;71060.19;;;-148.95;80.38
38558;BME280;24333;42.626;23.308;2023-04-05T06:07:35;71020.75;;;-148.95;80.98
38558;BME280;24333;42.626;23.308;2023-04-05T06:10:00;71008.31;;;-148.95;81.47
38558;BME280;24333;42.626;23.308;2023-04-05T06:12:26;71010.38;;;-148.95;79.89
38558;BME280;24333;42.626;23.308;2023-04-05T06:14:51;71006.22;;;-148.95;79.02
38558;BME280;24333;42.626;23.308;2023-04-05T06:17:17;71022.81;;;-148.95;78.13
38558;BME280;24333;42.626;23.308;2023-04-05T06:19:42;71010.38;;;-148.95;77.21
38558;BME280;24333;42.626;23.308;2023-04-05T06:22:08;71010.38;;;-148.95;77.09
38558;BME280;24333;42.626;23.308;2023-04-05T06:24:33;70983.41;;;-148.95;78.72
38558;BME280;24333;42.626;23.308;2023-04-05T06:26:59;70975.09;;;-148.95;74.57
38558;BME280;24333;42.626;23.308;2023-04-05T06:29:26;70981.31;;;-148.95;73.67
38558;BME280;24333;42.626;23.308;2023-04-05T06:31:51;70964.72;;;-148.95;73.05
38558;BME280;24333;42.626;23.308;2023-04-05T06:34:18;70937.75;;;-148.95;70.94
38558;BME280;24333;42.626;23.308;2023-04-05T06:36:44;70946.03;;;-148.95;68.97
38558;BME280;24333;42.626;23.308;2023-04-05T06:39:10;70900.41;;;-148.95;70.25
38558;BME280;24333;42.626;23.308;2023-04-05T06:45:00;70929.44;;;-148.95;68.00
38558;BME280;24333;42.626;23.308;2023-04-05T06:47:28;70941.91;;;-148.95;69.47
38558;BME280;24333;42.626;23.308;2023-04-05T06:49:54;70931.53;;;-148.95;71.08
38558;BME280;24333;42.626;23.308;2023-04-05T06:52:44;70912.84;;;-148.95;70.38
38558;BME280;24333;42.626;23.308;2023-04-05T06:55:41;70943.97;;;-148.95;71.05
38558;BME280;24333;42.626;23.308;2023-04-05T06:58:06;70935.66;;;-148.95;71.95
38558;BME280;24333;42.626;23.308;2023-04-05T07:00:32;70933.59;;;-148.95;68.79
38558;BME280;24333;42.626;23.308;2023-04-05T07:02:57;70927.38;;;-148.95;67.99
38558;BME280;24333;42.626;23.308;2023-04-05T07:05:22;70958.50;;;-148.95;65.98
38558;BME280;24333;42.626;23.308;2023-04-05T07:07:48;70964.72;;;-148.95;68.12
38558;BME280;24333;42.626;23.308;2023-04-05T07:10:13;70966.81;;;-148.95;68.24
38558;BME280;24333;42.626;23.308;2023-04-05T07:13:00;70973.03;;;-148.95;69.42
38558;BME280;24333;42.626;23.308;2023-04-05T07:15:26;70962.66;;;-148.95;72.24
38558;BME280;24333;42.626;23.308;2023-04-05T07:17:52;70977.19;;;-148.95;72.55
38558;BME280;24333;42.626;23.308;2023-04-05T07:20:17;70958.50;;;-148.95;72.94
38558;BME280;24333;42.626;23.308;2023-04-05T08:12:25;71024.91;;;-148.95;75.32
38558;BME280;24333;42.626;23.308;2023-04-05T08:14:51;71035.28;;;-148.95;74.28
38558;BME280;24333;42.626;23.308;2023-04-05T08:17:18;71029.06;;;-148.95;75.30
38558;BME280;24333;42.626;23.308;2023-04-05T08:19:47;71047.72;;;-148.95;76.87
38558;BME280;24333;42.626;23.308;2023-04-05T08:22:13;71026.97;;;-148.95;77.15
38558;BME280;24333;42.626;23.308;2023-04-05T08:24:44;71012.44;;;-148.95;74.95
38558;BME280;24333;42.626;23.308;2023-04-05T08:29:41;71024.91;;;-148.95;74.16
38558;BME280;24333;42.626;23.308;2023-04-05T08:32:07;71024.91;;;-148.95;78.11
38558;BME280;24333;42.626;23.308;2023-04-05T08:34:33;71031.13;;;-148.95;83.05
38558;BME280;24333;42.626;23.308;2023-04-05T08:37:10;71022.81;;;-148.95;78.17
38558;BME280;24333;42.626;23.308;2023-04-05T08:39:36;71026.97;;;-148.95;75.00
38558;BME280;24333;42.626;23.308;2023-04-05T08:42:18;71012.44;;;-148.95;72.82
38558;BME280;24333;42.626;23.308;2023-04-05T10:35:16;70979.25;;;-148.95;77.73
38558;BME280;24333;42.626;23.308;2023-04-05T10:38:02;70995.84;;;-148.95;78.01
38558;BME280;24333;42.626;23.308;2023-04-05T10:40:31;71010.38;;;-148.95;78.49
38558;BME280;24333;42.626;23.308;2023-04-05T10:42:57;70983.41;;;-148.95;79.29
38558;BME280;24333;42.626;23.308;2023-04-05T10:45:24;70946.03;;;-148.95;78.80
38558;BME280;24333;42.626;23.308;2023-04-05T10:48:03;70958.50;;;-148.95;77.53
38558;BME280;24333;42.626;23.308;2023-04-05T10:50:31;70995.84;;;-148.95;77.54
38558;BME280;24333;42.626;23.308;2023-04-05T10:52:58;70966.81;;;-148.95;79.98
38558;BME280;24333;42.626;23.308;2023-04-05T10:55:25;70950.19;;;-148.95;78.75
38558;BME280;24333;42.626;23.308;2023-04-05T10:57:50;70952.28;;;-148.95;76.11
38558;BME280;24333;42.626;23.308;2023-04-05T11:00:17;70970.94;;;-148.95;77.69
38558;BME280;24333;42.626;23.308;2023-04-05T11:02:43;70989.63;;;-148.95;77.53
38558;BME280;24333;42.626;23.308;2023-04-05T19:26:09;71471.09;;;-148.95;100.00
38558;BME280;24333;42.626;23.308;2023-04-05T19:29:23;71456.56;;;-148.95;100.00
38558;BME280;24333;42.626;23.308;2023-04-05T19:31:55;71446.19;;;-148.95;100.00
38558;BME280;24333;42.626;23.308;2023-04-05T19:34:41;71446.19;;;-148.95;99.93
38558;BME280;24333;42.626;23.308;2023-04-05T19:43:58;71446.19;;;-148.95;97.31
38558;BME280;24333;42.626;23.308;2023-04-05T19:46:33;71444.09;;;-148.95;97.62
38558;BME280;24333;42.626;23.308;2023-04-05T19:49:30;71431.66;;;-148.95;97.39
38558;BME280;24333;42.626;23.308;2023-04-05T19:52:08;71419.19;;;-148.95;96.92
38558;BME280;24333;42.626;23.308;2023-04-05T19:54:42;71421.28;;;-148.95;96.31
38558;BME280;24333;42.626;23.308;2023-04-05T20:12:48;71423.34;;;-148.95;94.18
38558;BME280;24333;42.626;23.308;2023-04-05T20:15:31;71425.44;;;-148.95;93.10
38558;BME280;24333;42.626;23.308;2023-04-05T20:18:24;71423.34;;;-148.95;93.41
38558;BME280;24333;42.626;23.308;2023-04-05T20:20:52;71429.59;;;-148.95;92.79
38558;BME280;24333;42.626;23.308;2023-04-05T20:23:28;71431.66;;;-148.95;93.93
38558;BME280;24333;42.626;23.308;2023-04-05T20:28:51;71425.44;;;-148.95;93.55
38558;BME280;24333;42.626;23.308;2023-04-05T20:31:34;71437.88;;;-148.95;92.67
38558;BME280;24333;42.626;23.308;2023-04-05T20:34:31;71433.72;;;-148.95;93.05
38558;BME280;24333;42.626;23.308;2023-04-05T20:40:46;71437.88;;;-148.95;92.62
38558;BME280;24333;42.626;23.308;2023-04-05T23:45:26;71390.16;;;-148.95;99.07
38558;BME280;24333;42.626;23.308;2023-04-05T23:47:52;71386.00;;;-148.95;99.61
